Time;durP1;ratioP1;P1;durP2;ratioP2;P2;SDS_P1;SDS_P2;PMS_P1;PMS_P2;Temp;Humidity;BMP_temperature;BMP_pressure;BME280_temperature;BME280_humidity;BME280_pressure;Samples;Min_cycle;Max_cycle;Signal;HPM_P1;HPM_P2
2023/12/10 00:00:58;;;;;;;;;;;;;;;3.78;83.88;95166.47;5113346;28;1091;-63
2023/12/10 00:03:24;;;;;;;;;;;;;;;3.67;84.79;95173.41;5113336;28;976;-64
2023/12/10 00:05:50;;;;;;;;;;;;;;;3.67;84.88;95165.50;5113246;28;1992;-64
2023/12/10 00:08:16;;;;;;;;;;;;;;;3.73;84.03;95164.19;5113205;28;1379;-64
2023/12/10 00:10:42;;;;;;;;;;;;;;;3.62;84.36;95153.59;5113272;28;1048;-64
2023/12/10 00:13:11;;;;;;;;;;;;;;;3.48;85.52;95149.38;5113367;28;984;-64
2023/12/10 00:15:37;;;;;;;;;;;;;;;3.42;86.67;95155.13;5113331;28;968;-64
2023/12/10 00:18:04;;;;;;;;;;;;;;;3.40;86.22;95157.88;5113494;28;1033;-64
2023/12/10 00:20:30;;;;;;;;;;;;;;;3.44;86.07;95154.03;5113109;28;984;-64
2023/12/10 00:22:56;;;;;;;;;;;;;;;3.47;86.14;95150.31;5113449;28;1015;-63
2023/12/10 00:25:25;;;;;;;;;;;;;;;3.49;86.56;95151.91;5113019;28;1103;-64
2023/12/10 00:27:51;;;;;;;;;;;;;;;3.49;86.62;95151.91;5113255;28;1056;-64
2023/12/10 00:30:17;;;;;;;;;;;;;;;3.45;86.63;95154.88;5112992;28;1311;-64
2023/12/10 00:32:44;;;;;;;;;;;;;;;3.47;86.22;95156.47;5113121;28;1047;-64
2023/12/10 00:35:10;;;;;;;;;;;;;;;3.40;87.40;95152.59;5113302;28;1007;-64
2023/12/10 00:37:36;;;;;;;;;;;;;;;3.24;87.69;95160.84;5113001;28;1071;-64
2023/12/10 00:40:03;;;;;;;;;;;;;;;3.23;87.47;95166.25;5113195;28;968;-64
2023/12/10 00:42:29;;;;;;;;;;;;;;;3.20;88.15;95163.84;5115274;28;1186;-64
2023/12/10 00:44:55;;;;;;;;;;;;;;;2.99;88.73;95159.22;5116602;28;821;-64
2023/12/10 00:47:21;;;;;;;;;;;;;;;2.93;89.19;95159.69;5116410;28;1913;-64
2023/12/10 00:49:47;;;;;;;;;;;;;;;2.87;89.03;95155.69;5116405;28;1033;-64
2023/12/10 00:52:13;;;;;;;;;;;;;;;2.79;88.86;95152.78;5116586;28;1042;-64
2023/12/10 00:54:40;;;;;;;;;;;;;;;2.67;88.65;95148.41;5115486;27;3899;-63
2023/12/10 00:57:06;;;;;;;;;;;;;;;2.47;89.79;95153.34;5116302;27;1038;-63
2023/12/10 00:59:31;;;;;;;;;;;;;;;2.53;90.59;95147.63;5116106;28;1092;-63
2023/12/10 01:01:58;;;;;;;;;;;;;;;2.66;90.05;95144.09;5116160;28;1025;-63
2023/12/10 01:04:24;;;;;;;;;;;;;;;2.74;89.94;95144.34;5116034;28;1004;-63
2023/12/10 01:06:51;;;;;;;;;;;;;;;2.93;88.40;95144.66;5116243;28;1989;-64
2023/12/10 01:09:16;;;;;;;;;;;;;;;2.97;87.87;95152.38;5116113;28;1202;-63
2023/12/10 01:11:42;;;;;;;;;;;;;;;2.87;88.29;95150.41;5116570;28;1031;-63
2023/12/10 01:14:08;;;;;;;;;;;;;;;2.79;89.16;95151.91;5114826;28;1024;-64
2023/12/10 01:16:34;;;;;;;;;;;;;;;2.85;89.11;95149.69;5115849;28;976;-63
2023/12/10 01:19:00;;;;;;;;;;;;;;;2.80;89.26;95150.97;5116099;28;1055;-63
2023/12/10 01:21:26;;;;;;;;;;;;;;;2.56;90.38;95149.19;5115634;28;1032;-63
2023/12/10 01:23:54;;;;;;;;;;;;;;;2.43;91.55;95141.34;5115969;28;1060;-63
2023/12/10 01:26:23;;;;;;;;;;;;;;;2.33;91.55;95141.16;5115912;28;1906;-63
2023/12/10 01:28:49;;;;;;;;;;;;;;;2.31;91.81;95135.13;5114625;28;1064;-63
2023/12/10 01:31:15;;;;;;;;;;;;;;;2.32;91.96;95130.72;5114611;28;1087;-63
2023/12/10 01:33:41;;;;;;;;;;;;;;;2.30;92.18;95132.63;5115474;28;1032;-63
2023/12/10 01:36:07;;;;;;;;;;;;;;;2.35;92.32;95138.38;5115764;28;1044;-63
2023/12/10 01:38:34;;;;;;;;;;;;;;;2.36;92.01;95134.81;5115461;28;1028;-64
2023/12/10 01:41:00;;;;;;;;;;;;;;;2.34;92.00;95126.16;5115463;28;1052;-64
2023/12/10 01:43:26;;;;;;;;;;;;;;;2.44;92.00;95126.34;5115455;28;1070;-64
2023/12/10 01:45:53;;;;;;;;;;;;;;;2.59;91.25;95124.38;5115580;28;2001;-64
2023/12/10 01:48:23;;;;;;;;;;;;;;;2.75;90.05;95119.63;5115161;28;1035;-63
2023/12/10 01:50:49;;;;;;;;;;;;;;;2.84;90.01;95118.94;5115465;28;1024;-64
2023/12/10 01:53:16;;;;;;;;;;;;;;;2.69;89.97;95120.09;5114898;28;1047;-64
2023/12/10 01:55:42;;;;;;;;;;;;;;;2.53;90.95;95121.22;5115048;28;1275;-63
2023/12/10 01:58:09;;;;;;;;;;;;;;;2.41;91.53;95114.22;5115274;28;988;-63
2023/12/10 02:00:35;;;;;;;;;;;;;;;2.46;91.90;95108.59;5114879;27;1204;-63
2023/12/10 02:03:05;;;;;;;;;;;;;;;2.23;92.54;95108.47;5114929;28;1019;-63
2023/12/10 02:05:31;;;;;;;;;;;;;;;2.19;92.41;95100.91;5115028;28;1990;-64
2023/12/10 02:07:57;;;;;;;;;;;;;;;2.16;92.71;95104.59;5115079;28;1035;-64
2023/12/10 02:10:23;;;;;;;;;;;;;;;2.39;92.77;95115.25;5114675;28;1214;-63
2023/12/10 02:12:52;;;;;;;;;;;;;;;2.57;91.79;95115.72;5114831;28;1059;-63
2023/12/10 02:15:18;;;;;;;;;;;;;;;2.56;91.88;95108.75;5114649;28;1087;-63
2023/12/10 02:17:45;;;;;;;;;;;;;;;2.41;91.67;95095.75;5114725;27;1011;-63
2023/12/10 02:20:12;;;;;;;;;;;;;;;2.29;92.40;95101.91;5114898;28;999;-63
2023/12/10 02:22:44;;;;;;;;;;;;;;;2.44;92.21;95100.78;5114773;28;973;-63
2023/12/10 02:25:11;;;;;;;;;;;;;;;2.49;91.82;95092.53;5114708;28;1119;-63
2023/12/10 02:27:37;;;;;;;;;;;;;;;2.32;92.23;95085.88;5114412;28;1909;-63
2023/12/10 02:30:04;;;;;;;;;;;;;;;2.22;93.18;95079.56;5114739;28;964;-63
2023/12/10 02:32:30;;;;;;;;;;;;;;;2.24;93.39;95083.78;5114312;28;1007;-64
2023/12/10 02:34:56;;;;;;;;;;;;;;;2.40;92.68;95078.22;5114674;28;995;-63
2023/12/10 02:37:22;;;;;;;;;;;;;;;2.67;91.46;95071.84;5113986;28;1092;-64
2023/12/10 02:39:48;;;;;;;;;;;;;;;2.71;91.28;95075.94;5114390;28;893;-64
2023/12/10 02:42:14;;;;;;;;;;;;;;;2.72;91.16;95073.19;5114411;28;1043;-64
2023/12/10 02:44:40;;;;;;;;;;;;;;;2.61;91.32;95070.50;5114254;28;1052;-64
2023/12/10 02:47:06;;;;;;;;;;;;;;;2.53;91.53;95072.88;5114036;28;1992;-64
2023/12/10 02:49:32;;;;;;;;;;;;;;;2.54;92.17;95077.19;5114311;28;968;-64
2023/12/10 02:51:58;;;;;;;;;;;;;;;2.60;92.65;95083.81;5114069;28;1044;-64
2023/12/10 02:54:24;;;;;;;;;;;;;;;2.75;91.80;95082.66;5114195;28;1212;-64
2023/12/10 02:56:50;;;;;;;;;;;;;;;2.83;92.00;95072.38;5114246;28;1047;-64
2023/12/10 02:59:15;;;;;;;;;;;;;;;2.92;91.52;95081.38;5113901;28;1036;-64
2023/12/10 03:01:41;;;;;;;;;;;;;;;2.99;91.10;95082.59;5113836;28;972;-63
2023/12/10 03:04:07;;;;;;;;;;;;;;;2.95;90.87;95082.97;5113325;28;1032;-64
2023/12/10 03:06:33;;;;;;;;;;;;;;;2.74;91.30;95083.63;5113931;28;1997;-64
2023/12/10 03:08:59;;;;;;;;;;;;;;;2.63;91.97;95078.31;5113817;28;1234;-64
2023/12/10 03:11:25;;;;;;;;;;;;;;;2.54;93.25;95079.81;5113631;28;1119;-64
2023/12/10 03:13:51;;;;;;;;;;;;;;;2.57;92.95;95089.34;5113735;28;1048;-63
2023/12/10 03:16:17;;;;;;;;;;;;;;;2.54;93.02;95093.88;5113490;28;1028;-62
2023/12/10 03:18:43;;;;;;;;;;;;;;;2.59;92.98;95095.34;5113986;28;1055;-63
2023/12/10 03:21:09;;;;;;;;;;;;;;;2.56;92.53;95092.91;5113924;28;1052;-63
2023/12/10 03:23:35;;;;;;;;;;;;;;;2.57;92.75;95090.16;5113488;28;1115;-64
2023/12/10 03:26:01;;;;;;;;;;;;;;;2.58;91.73;95094.50;5113491;28;1965;-63
2023/12/10 03:28:27;;;;;;;;;;;;;;;2.40;93.17;95091.41;5113472;28;992;-63
2023/12/10 03:30:53;;;;;;;;;;;;;;;2.37;94.08;95090.78;5113478;28;968;-64
2023/12/10 03:33:19;;;;;;;;;;;;;;;2.52;93.44;95100.22;5113367;28;1092;-63
2023/12/10 03:35:45;;;;;;;;;;;;;;;2.63;93.33;95096.78;5113728;28;964;-64
2023/12/10 03:38:11;;;;;;;;;;;;;;;2.69;92.63;95097.19;5113381;28;1084;-64
2023/12/10 03:40:37;;;;;;;;;;;;;;;2.75;92.59;95103.78;5113635;28;1151;-64
2023/12/10 03:43:03;;;;;;;;;;;;;;;2.74;92.26;95102.94;5113567;28;944;-63
2023/12/10 03:45:29;;;;;;;;;;;;;;;2.60;92.85;95086.44;5113522;28;1043;-64
2023/12/10 03:47:55;;;;;;;;;;;;;;;2.43;93.25;95088.56;5113584;28;1967;-64
2023/12/10 03:50:21;;;;;;;;;;;;;;;2.29;94.12;95097.47;5113485;28;1053;-63
2023/12/10 03:52:47;;;;;;;;;;;;;;;2.47;93.43;95095.28;5113298;28;1248;-64
2023/12/10 03:55:13;;;;;;;;;;;;;;;2.58;92.71;95097.13;5113397;28;1177;-64
2023/12/10 03:57:39;;;;;;;;;;;;;;;2.70;92.42;95100.66;5113345;28;1298;-64
2023/12/10 04:00:06;;;;;;;;;;;;;;;2.72;91.93;95090.81;5113526;28;987;-64
2023/12/10 04:02:32;;;;;;;;;;;;;;;2.60;92.51;95089.94;5113435;28;995;-63
2023/12/10 04:04:58;;;;;;;;;;;;;;;2.30;93.72;95085.13;5113145;28;1029;-65
2023/12/10 04:07:25;;;;;;;;;;;;;;;2.13;94.12;95084.56;5113110;28;1981;-62
2023/12/10 04:09:51;;;;;;;;;;;;;;;2.10;94.30;95083.94;5111890;28;1092;-64
2023/12/10 04:12:17;;;;;;;;;;;;;;;2.29;93.70;95084.28;5113040;28;995;-63
2023/12/10 04:14:47;;;;;;;;;;;;;;;2.42;93.02;95081.56;5113103;28;1036;-60
2023/12/10 04:17:13;;;;;;;;;;;;;;;2.53;91.90;95086.06;5117091;28;1090;-60
2023/12/10 04:19:40;;;;;;;;;;;;;;;2.50;91.79;95079.25;5117283;28;1011;-60
2023/12/10 04:22:06;;;;;;;;;;;;;;;2.40;92.29;95088.78;5117116;28;992;-61
2023/12/10 04:24:32;;;;;;;;;;;;;;;2.09;91.31;95091.00;5116745;28;1029;-60
2023/12/10 04:26:58;;;;;;;;;;;;;;;1.82;92.85;95079.81;5116837;28;1988;-60
2023/12/10 04:29:24;;;;;;;;;;;;;;;1.82;93.12;95080.66;5116928;28;1019;-61
2023/12/10 04:31:50;;;;;;;;;;;;;;;1.85;93.25;95072.53;5117090;28;988;-61
2023/12/10 04:34:16;;;;;;;;;;;;;;;1.96;92.66;95069.13;5116907;28;1019;-61
2023/12/10 04:36:42;;;;;;;;;;;;;;;1.89;92.77;95083.69;5116357;28;1267;-62
2023/12/10 04:39:08;;;;;;;;;;;;;;;1.89;92.13;95083.69;5116694;28;972;-63
2023/12/10 04:41:34;;;;;;;;;;;;;;;1.85;92.59;95082.22;5116429;28;1091;-62
2023/12/10 04:44:00;;;;;;;;;;;;;;;1.78;92.20;95091.53;5116408;28;1048;-62
2023/12/10 04:46:26;;;;;;;;;;;;;;;1.86;92.09;95091.81;5116584;28;2007;-63
2023/12/10 04:48:52;;;;;;;;;;;;;;;1.90;92.41;95098.56;5116433;28;1096;-63
2023/12/10 04:51:18;;;;;;;;;;;;;;;1.99;91.83;95095.25;5115330;28;969;-63
2023/12/10 04:53:44;;;;;;;;;;;;;;;1.58;91.59;95096.41;5116384;28;1160;-64
2023/12/10 04:56:10;;;;;;;;;;;;;;;1.36;92.46;95103.16;5116324;28;1028;-63
2023/12/10 04:58:36;;;;;;;;;;;;;;;1.36;92.38;95094.44;5116443;28;1031;-62
2023/12/10 05:01:02;;;;;;;;;;;;;;;1.25;93.08;95097.84;5116243;28;1045;-63
2023/12/10 05:03:29;;;;;;;;;;;;;;;1.12;93.76;95103.09;5116128;27;1091;-63
2023/12/10 05:05:55;;;;;;;;;;;;;;;1.22;93.96;95090.13;5115087;28;1987;-63
2023/12/10 05:08:21;;;;;;;;;;;;;;;1.05;93.84;95096.53;5115839;28;1183;-63
2023/12/10 05:10:47;;;;;;;;;;;;;;;1.07;94.89;95097.28;5115993;28;1059;-63
2023/12/10 05:13:13;;;;;;;;;;;;;;;1.24;94.22;95088.22;5115888;28;1032;-63
2023/12/10 05:15:39;;;;;;;;;;;;;;;1.41;93.54;95089.69;5116192;28;960;-63
2023/12/10 05:18:05;;;;;;;;;;;;;;;1.51;93.13;95098.63;5114632;28;1036;-62
2023/12/10 05:20:31;;;;;;;;;;;;;;;1.58;92.34;95101.69;5115948;28;1004;-60
2023/12/10 05:23:00;;;;;;;;;;;;;;;1.42;91.81;95101.06;5115771;28;1100;-60
2023/12/10 05:25:32;;;;;;;;;;;;;;;1.35;92.82;95108.56;5114785;28;965;-63
2023/12/10 05:27:58;;;;;;;;;;;;;;;1.40;92.53;95105.59;5114848;28;1905;-69
2023/12/10 05:30:24;;;;;;;;;;;;;;;1.42;93.27;95096.63;5115469;28;1159;-62
2023/12/10 05:32:51;;;;;;;;;;;;;;;1.50;93.87;95094.31;5115905;28;965;-63
2023/12/10 05:35:17;;;;;;;;;;;;;;;1.63;92.73;95098.72;5115831;28;1043;-63
2023/12/10 05:37:43;;;;;;;;;;;;;;;1.65;92.94;95091.53;5114647;28;988;-63
2023/12/10 05:40:09;;;;;;;;;;;;;;;1.70;92.71;95092.06;5115547;28;999;-61
2023/12/10 05:42:35;;;;;;;;;;;;;;;1.57;91.96;95089.44;5115600;28;1044;-61
2023/12/10 05:45:02;;;;;;;;;;;;;;;1.38;92.41;95087.25;5115532;28;1036;-61
2023/12/10 05:47:28;;;;;;;;;;;;;;;1.23;92.86;95094.44;5115235;28;1909;-61
2023/12/10 05:49:54;;;;;;;;;;;;;;;1.24;93.39;95095.28;5115332;28;1028;-61
2023/12/10 05:52:20;;;;;;;;;;;;;;;1.32;93.68;95096.44;5115350;28;1016;-61
2023/12/10 05:54:46;;;;;;;;;;;;;;;1.32;93.39;95093.78;5115199;28;1176;-61
2023/12/10 05:57:12;;;;;;;;;;;;;;;0.96;93.50;95098.00;5115301;28;1090;-61
2023/12/10 05:59:38;;;;;;;;;;;;;;;1.03;93.76;95094.97;5115167;28;1099;-61
2023/12/10 06:02:04;;;;;;;;;;;;;;;0.85;94.43;95100.53;5113862;28;1079;-60
2023/12/10 06:04:30;;;;;;;;;;;;;;;0.98;95.48;95100.53;5115079;28;956;-60
2023/12/10 06:06:56;;;;;;;;;;;;;;;0.96;96.56;95105.06;5113736;28;1992;-61
2023/12/10 06:09:23;;;;;;;;;;;;;;;0.91;96.83;95097.50;5114812;28;1210;-61
2023/12/10 06:11:49;;;;;;;;;;;;;;;1.06;96.34;95107.91;5115130;28;1008;-63
2023/12/10 06:14:15;;;;;;;;;;;;;;;1.09;96.14;95102.44;5115090;28;1015;-63
2023/12/10 06:16:40;;;;;;;;;;;;;;;1.14;96.15;95098.56;5114961;28;1099;-64
2023/12/10 06:19:06;;;;;;;;;;;;;;;1.42;95.45;95101.91;5115097;28;1047;-63
2023/12/10 06:21:33;;;;;;;;;;;;;;;1.41;94.81;95102.88;5115082;28;988;-64
2023/12/10 06:23:59;;;;;;;;;;;;;;;1.50;94.96;95109.28;5115204;28;1058;-62
2023/12/10 06:26:25;;;;;;;;;;;;;;;1.78;94.22;95096.78;5113210;28;1962;-62
2023/12/10 06:28:51;;;;;;;;;;;;;;;2.26;92.12;95094.22;5114862;28;980;-64
2023/12/10 06:31:17;;;;;;;;;;;;;;;3.74;84.32;95097.13;5113303;28;1028;-62
2023/12/10 06:33:44;;;;;;;;;;;;;;;5.51;76.42;95108.28;5114671;28;1059;-63
2023/12/10 06:36:10;;;;;;;;;;;;;;;6.63;68.56;95106.44;5114480;28;1079;-63
2023/12/10 06:38:37;;;;;;;;;;;;;;;7.41;64.69;95114.41;5113487;28;1019;-63
2023/12/10 06:41:03;;;;;;;;;;;;;;;8.73;60.36;95119.66;5114280;28;1083;-63
2023/12/10 06:43:29;;;;;;;;;;;;;;;9.61;56.12;95129.59;5114248;28;1024;-63
2023/12/10 06:45:58;;;;;;;;;;;;;;;9.05;56.77;95124.47;5114250;28;1983;-64
2023/12/10 06:48:25;;;;;;;;;;;;;;;6.59;66.03;95105.88;5114412;28;1161;-62
2023/12/10 06:50:52;;;;;;;;;;;;;;;5.25;71.97;95098.94;5114334;28;952;-63
2023/12/10 06:53:18;;;;;;;;;;;;;;;4.19;77.97;95109.44;5114306;28;980;-64
2023/12/10 06:55:44;;;;;;;;;;;;;;;3.81;81.40;95113.31;5114008;28;1223;-63
2023/12/10 06:58:10;;;;;;;;;;;;;;;3.75;83.26;95119.09;5114080;28;1099;-62
2023/12/10 07:00:36;;;;;;;;;;;;;;;3.52;84.32;95117.28;5147147;27;1056;-63
2023/12/10 07:03:02;;;;;;;;;;;;;;;3.34;86.47;95129.28;5113848;28;1040;-63
2023/12/10 07:05:29;;;;;;;;;;;;;;;3.25;86.14;95132.63;5114006;28;1252;-63
2023/12/10 07:07:55;;;;;;;;;;;;;;;3.00;87.48;95126.56;5113919;28;1958;-63
2023/12/10 07:10:54;;;;;;;;;;;;;;;2.89;89.71;95129.16;5087939;28;1388;-64
2023/12/10 07:13:20;;;;;;;;;;;;;;;3.78;86.08;95140.03;5072322;28;1013;-62
2023/12/10 07:15:47;;;;;;;;;;;;;;;4.05;84.42;95135.19;5073595;28;1283;-63
2023/12/10 07:18:13;;;;;;;;;;;;;;;7.06;71.67;95138.91;5088850;28;1163;-62
2023/12/10 07:20:39;;;;;;;;;;;;;;;10.07;58.66;95141.75;5073201;28;1021;-63
2023/12/10 07:23:05;;;;;;;;;;;;;;;12.25;50.59;95163.09;5073112;28;1084;-63
2023/12/10 07:25:31;;;;;;;;;;;;;;;12.80;48.30;95172.13;5073295;28;960;-62
2023/12/10 07:27:57;;;;;;;;;;;;;;;12.11;50.11;95169.16;5073267;28;1906;-63
2023/12/10 07:30:23;;;;;;;;;;;;;;;10.15;54.80;95151.66;5073085;28;1017;-63
2023/12/10 07:32:49;;;;;;;;;;;;;;;8.14;61.65;95127.09;5073353;28;1020;-63
2023/12/10 07:35:15;;;;;;;;;;;;;;;6.86;68.59;95115.00;5073018;28;977;-60
2023/12/10 07:37:41;;;;;;;;;;;;;;;6.30;71.46;95119.13;5073008;28;952;-62
2023/12/10 07:40:07;;;;;;;;;;;;;;;5.47;74.81;95136.88;5073012;28;1025;-62
2023/12/10 07:42:33;;;;;;;;;;;;;;;4.93;79.69;95136.03;5072893;28;1037;-63
2023/12/10 07:45:00;;;;;;;;;;;;;;;4.77;80.17;95143.59;5073078;28;1036;-62
2023/12/10 07:47:27;;;;;;;;;;;;;;;4.72;80.61;95136.00;5072843;28;1910;-62
2023/12/10 07:49:53;;;;;;;;;;;;;;;4.85;81.05;95136.69;5073312;28;960;-61
2023/12/10 07:52:19;;;;;;;;;;;;;;;4.87;79.92;95128.63;5076846;28;1103;-62
2023/12/10 07:54:45;;;;;;;;;;;;;;;4.99;81.05;95127.63;5076829;28;1236;-61
2023/12/10 07:57:11;;;;;;;;;;;;;;;5.13;81.09;95130.91;5076866;28;1037;-62
2023/12/10 07:59:37;;;;;;;;;;;;;;;5.09;80.92;95140.94;5076554;28;1060;-62
2023/12/10 08:02:03;;;;;;;;;;;;;;;5.27;79.52;95135.88;5076859;28;1066;-62
2023/12/10 08:04:29;;;;;;;;;;;;;;;5.35;80.08;95141.41;5076728;28;948;-62
2023/12/10 08:06:55;;;;;;;;;;;;;;;5.55;79.10;95136.22;5076628;28;1910;-62
2023/12/10 08:09:21;;;;;;;;;;;;;;;5.14;79.67;95144.06;5076681;28;1072;-62
2023/12/10 08:11:47;;;;;;;;;;;;;;;5.00;81.04;95142.53;5096465;28;1226;-62
2023/12/10 08:14:14;;;;;;;;;;;;;;;5.07;80.99;95140.22;5117410;28;1055;-62
2023/12/10 08:16:40;;;;;;;;;;;;;;;4.97;79.87;95141.94;5117341;28;1035;-62
2023/12/10 08:19:06;;;;;;;;;;;;;;;4.78;81.23;95135.53;5117337;28;1032;-63
2023/12/10 08:21:32;;;;;;;;;;;;;;;4.96;79.67;95133.16;5116070;28;993;-62
2023/12/10 08:23:58;;;;;;;;;;;;;;;5.07;80.35;95130.44;5117068;28;1041;-62
2023/12/10 08:26:24;;;;;;;;;;;;;;;5.22;80.34;95127.50;5117034;28;1918;-62
2023/12/10 08:28:50;;;;;;;;;;;;;;;5.32;80.07;95136.34;5117201;28;1015;-64
2023/12/10 08:31:16;;;;;;;;;;;;;;;5.44;79.26;95131.81;5116974;28;1082;-64
2023/12/10 08:33:44;;;;;;;;;;;;;;;5.31;78.68;95131.16;5116949;28;1111;-64
2023/12/10 08:36:10;;;;;;;;;;;;;;;5.40;78.51;95128.56;5115566;28;1252;-64
2023/12/10 08:38:36;;;;;;;;;;;;;;;5.34;79.05;95128.28;5116869;27;1024;-65
2023/12/10 08:41:02;;;;;;;;;;;;;;;5.26;77.55;95124.44;5115506;28;972;-65
2023/12/10 08:43:30;;;;;;;;;;;;;;;5.22;77.86;95115.06;5116599;28;1049;-65
2023/12/10 08:45:57;;;;;;;;;;;;;;;5.21;77.88;95113.38;5116579;28;2008;-65
2023/12/10 08:48:23;;;;;;;;;;;;;;;5.50;78.84;95114.53;5116590;28;1077;-65
2023/12/10 08:50:49;;;;;;;;;;;;;;;5.65;77.92;95110.56;5115359;28;1052;-65
2023/12/10 08:53:15;;;;;;;;;;;;;;;5.54;77.43;95100.91;5116660;28;980;-65
2023/12/10 08:55:41;;;;;;;;;;;;;;;5.91;75.40;95091.56;5116673;28;1153;-65
2023/12/10 08:58:07;;;;;;;;;;;;;;;6.25;74.71;95094.78;5116404;28;975;-62
2023/12/10 09:00:33;;;;;;;;;;;;;;;6.74;73.07;95101.00;5116248;28;1068;-62
2023/12/10 09:02:59;;;;;;;;;;;;;;;7.02;70.47;95098.50;5115119;28;1106;-63
2023/12/10 09:05:26;;;;;;;;;;;;;;;7.46;68.86;95100.69;5116081;28;1046;-63
2023/12/10 09:07:52;;;;;;;;;;;;;;;7.48;70.33;95086.25;5116432;27;1898;-62
2023/12/10 09:10:18;;;;;;;;;;;;;;;7.11;68.95;95086.16;5116423;28;1051;-61
2023/12/10 09:12:44;;;;;;;;;;;;;;;7.52;68.73;95086.81;5116066;28;1068;-61
2023/12/10 09:15:10;;;;;;;;;;;;;;;8.13;66.20;95096.94;5116188;28;967;-62
2023/12/10 09:17:36;;;;;;;;;;;;;;;8.13;64.77;95075.63;5114914;28;1257;-61
2023/12/10 09:20:02;;;;;;;;;;;;;;;8.17;64.85;95073.50;5114787;28;1067;-61
2023/12/10 09:22:28;;;;;;;;;;;;;;;8.42;63.88;95081.81;5116205;28;1078;-61
2023/12/10 09:24:54;;;;;;;;;;;;;;;8.47;64.84;95079.56;5115064;28;980;-61
2023/12/10 09:27:20;;;;;;;;;;;;;;;9.38;61.72;95082.06;5115938;27;1914;-62
2023/12/10 09:29:46;;;;;;;;;;;;;;;9.88;58.28;95085.88;5115900;28;1137;-60
2023/12/10 09:32:15;;;;;;;;;;;;;;;9.87;58.72;95087.72;5116257;28;957;-62
2023/12/10 09:34:41;;;;;;;;;;;;;;;9.73;59.81;95074.94;5115730;28;988;-61
2023/12/10 09:37:10;;;;;;;;;;;;;;;9.79;59.92;95066.31;5115728;27;1024;-60
2023/12/10 09:39:37;;;;;;;;;;;;;;;9.40;59.92;95061.38;5115861;28;1036;-60
2023/12/10 09:42:03;;;;;;;;;;;;;;;9.21;61.24;95046.41;5115912;28;1138;-61
2023/12/10 09:44:29;;;;;;;;;;;;;;;9.04;60.80;95056.09;5115587;28;981;-61
2023/12/10 09:46:55;;;;;;;;;;;;;;;9.34;60.34;95049.50;5115486;28;1914;-61
2023/12/10 09:49:22;;;;;;;;;;;;;;;9.62;59.69;95052.03;5115660;27;1043;-60
2023/12/10 09:51:48;;;;;;;;;;;;;;;9.61;58.46;95044.19;5115582;28;1031;-60
2023/12/10 09:54:14;;;;;;;;;;;;;;;9.90;58.64;95036.66;5115369;28;1305;-60
2023/12/10 09:56:40;;;;;;;;;;;;;;;9.96;57.87;95038.69;5115424;28;1032;-60
2023/12/10 09:59:06;;;;;;;;;;;;;;;10.08;57.59;95038.41;5115552;28;980;-60
2023/12/10 10:01:32;;;;;;;;;;;;;;;10.37;58.31;95038.03;5115262;28;999;-60
2023/12/10 10:03:59;;;;;;;;;;;;;;;10.80;56.15;95044.16;5115172;28;1260;-60
2023/12/10 10:06:26;;;;;;;;;;;;;;;11.26;54.63;95041.81;5114950;28;1905;-60
2023/12/10 10:08:52;;;;;;;;;;;;;;;11.37;54.23;95037.97;5115384;27;1067;-60
2023/12/10 10:11:18;;;;;;;;;;;;;;;11.31;52.93;95041.34;5114931;28;1084;-60
2023/12/10 10:13:53;;;;;;;;;;;;;;;11.28;55.09;95030.94;5114759;28;1031;-60
2023/12/10 10:16:19;;;;;;;;;;;;;;;11.34;53.53;95035.63;5114890;28;1027;-60
2023/12/10 10:18:47;;;;;;;;;;;;;;;11.12;53.32;95024.59;5114761;28;1028;-61
2023/12/10 10:21:13;;;;;;;;;;;;;;;11.41;54.92;95020.56;5114980;28;969;-61
2023/12/10 10:23:39;;;;;;;;;;;;;;;11.61;55.18;95021.06;5113585;28;1052;-60
2023/12/10 10:26:05;;;;;;;;;;;;;;;11.67;54.48;95024.88;5114597;28;1985;-60
2023/12/10 10:28:33;;;;;;;;;;;;;;;11.81;53.04;95028.69;5114677;28;1062;-59
2023/12/10 10:30:59;;;;;;;;;;;;;;;11.59;52.75;95022.22;5114527;28;1028;-60
2023/12/10 10:33:25;;;;;;;;;;;;;;;11.60;53.15;95014.00;5114503;28;1087;-60
2023/12/10 10:35:52;;;;;;;;;;;;;;;11.16;53.14;95008.22;5114487;28;1099;-60
2023/12/10 10:38:20;;;;;;;;;;;;;;;11.10;52.84;95007.88;5114718;28;1023;-59
2023/12/10 10:40:47;;;;;;;;;;;;;;;11.36;53.26;95009.53;5114402;28;1030;-59
2023/12/10 10:43:13;;;;;;;;;;;;;;;11.64;51.38;95006.47;5114606;28;940;-60
2023/12/10 10:45:39;;;;;;;;;;;;;;;11.77;52.48;94996.06;5114304;28;1016;-63
2023/12/10 10:48:06;;;;;;;;;;;;;;;11.92;51.90;94993.53;5114498;28;1902;-64
2023/12/10 10:50:35;;;;;;;;;;;;;;;11.82;52.64;94998.19;5114116;28;1036;-63
2023/12/10 10:53:01;;;;;;;;;;;;;;;11.79;53.03;94991.34;5113224;28;977;-62
2023/12/10 10:55:27;;;;;;;;;;;;;;;11.43;53.32;94991.78;5114325;28;1247;-62
2023/12/10 10:57:57;;;;;;;;;;;;;;;11.84;51.20;94986.34;5114122;28;1071;-63
2023/12/10 11:00:23;;;;;;;;;;;;;;;12.11;51.32;94982.38;5113961;28;1028;-63
2023/12/10 11:02:53;;;;;;;;;;;;;;;11.89;51.46;94969.72;5114278;28;1055;-63
2023/12/10 11:05:34;;;;;;;;;;;;;;;11.11;52.13;94971.25;5114166;28;981;-63
2023/12/10 11:08:01;;;;;;;;;;;;;;;11.27;53.90;94952.50;5113898;28;1906;-63
2023/12/10 11:10:27;;;;;;;;;;;;;;;11.52;51.68;94945.25;5112654;28;1072;-63
2023/12/10 11:12:54;;;;;;;;;;;;;;;11.38;52.20;94937.09;5113723;28;1219;-63
2023/12/10 11:15:20;;;;;;;;;;;;;;;11.30;52.51;94935.25;5114022;28;1016;-63
2023/12/10 11:17:49;;;;;;;;;;;;;;;11.36;53.78;94931.91;5114012;28;968;-63
2023/12/10 11:20:31;;;;;;;;;;;;;;;11.62;53.28;94926.31;5114041;28;976;-62
2023/12/10 11:22:57;;;;;;;;;;;;;;;11.69;53.12;94924.59;5113934;28;1151;-62
2023/12/10 11:25:24;;;;;;;;;;;;;;;11.35;50.62;94919.53;5112991;28;1060;-63
2023/12/10 11:27:50;;;;;;;;;;;;;;;11.10;52.34;94919.59;5113969;28;1994;-60
2023/12/10 11:30:17;;;;;;;;;;;;;;;11.15;50.68;94927.09;5113563;28;1071;-61
2023/12/10 11:32:43;;;;;;;;;;;;;;;10.87;52.20;94926.63;5113751;28;1027;-60
2023/12/10 11:35:09;;;;;;;;;;;;;;;11.00;52.37;94921.59;5113456;28;1025;-61
2023/12/10 11:37:35;;;;;;;;;;;;;;;10.99;51.44;94909.25;5113791;28;976;-61
2023/12/10 11:40:01;;;;;;;;;;;;;;;10.97;52.69;94910.44;5113617;28;1127;-61
2023/12/10 11:42:27;;;;;;;;;;;;;;;10.85;53.15;94896.53;5113670;28;977;-61
2023/12/10 11:44:53;;;;;;;;;;;;;;;10.64;52.76;94897.91;5113966;28;1007;-61
2023/12/10 11:47:19;;;;;;;;;;;;;;;10.89;53.52;94888.03;5113314;28;1998;-61
2023/12/10 11:49:45;;;;;;;;;;;;;;;11.02;52.71;94878.63;5113451;28;1106;-61
2023/12/10 11:52:11;;;;;;;;;;;;;;;11.05;52.72;94880.97;5113472;28;1119;-62
2023/12/10 11:54:38;;;;;;;;;;;;;;;10.92;53.54;94882.31;5113559;28;1240;-62
2023/12/10 11:57:04;;;;;;;;;;;;;;;10.75;53.07;94881.50;5113689;28;1052;-61
2023/12/10 11:59:30;;;;;;;;;;;;;;;10.86;52.38;94877.66;5113596;28;1032;-62
2023/12/10 12:01:56;;;;;;;;;;;;;;;10.86;54.71;94874.16;5113568;28;965;-61
2023/12/10 12:04:26;;;;;;;;;;;;;;;11.17;54.22;94868.06;5113537;28;1047;-62
2023/12/10 12:06:52;;;;;;;;;;;;;;;10.98;53.83;94874.63;5113289;28;1910;-61
2023/12/10 12:09:22;;;;;;;;;;;;;;;10.66;55.67;94869.19;5113176;28;1032;-60
2023/12/10 12:11:48;;;;;;;;;;;;;;;10.11;55.71;94856.41;5113294;28;1151;-60
2023/12/10 12:14:17;;;;;;;;;;;;;;;9.78;57.35;94845.69;5113172;28;1142;-61
2023/12/10 12:16:45;;;;;;;;;;;;;;;9.58;58.35;94845.97;5113475;28;1021;-61
2023/12/10 12:19:23;;;;;;;;;;;;;;;9.67;58.18;94843.31;5113068;28;1067;-61
2023/12/10 12:21:49;;;;;;;;;;;;;;;9.47;57.30;94816.09;5113185;28;1000;-60
2023/12/10 12:24:15;;;;;;;;;;;;;;;9.68;59.37;94845.84;5145664;27;1095;-61
2023/12/10 12:26:41;;;;;;;;;;;;;;;9.70;59.17;94845.69;5113171;28;1906;-61
2023/12/10 12:29:08;;;;;;;;;;;;;;;9.75;58.21;94838.00;5112279;28;1047;-61
2023/12/10 12:31:34;;;;;;;;;;;;;;;9.80;58.69;94854.38;5113171;28;965;-61
2023/12/10 12:33:59;;;;;;;;;;;;;;;9.77;59.42;94842.19;5113442;28;1039;-62
2023/12/10 12:36:25;;;;;;;;;;;;;;;9.73;59.88;94840.00;5113795;28;1100;-62
2023/12/10 12:38:51;;;;;;;;;;;;;;;9.52;59.72;94841.31;5117302;28;1032;-63
2023/12/10 12:41:17;;;;;;;;;;;;;;;9.32;58.90;94827.38;5116916;28;1055;-62
2023/12/10 12:43:43;;;;;;;;;;;;;;;9.25;60.22;94830.84;5116843;28;1035;-61
2023/12/10 12:46:09;;;;;;;;;;;;;;;9.38;60.41;94823.22;5116403;28;1906;-62
2023/12/10 12:48:35;;;;;;;;;;;;;;;9.37;59.84;94832.22;5116897;28;1194;-61
2023/12/10 12:51:01;;;;;;;;;;;;;;;9.23;59.67;94824.84;5116518;28;981;-64
2023/12/10 12:53:27;;;;;;;;;;;;;;;9.21;61.54;94825.00;5116669;28;1044;-59
2023/12/10 12:55:53;;;;;;;;;;;;;;;9.27;61.02;94826.19;5116559;28;1192;-62
2023/12/10 12:58:19;;;;;;;;;;;;;;;9.29;60.84;94827.69;5116673;28;984;-62
2023/12/10 13:00:45;;;;;;;;;;;;;;;9.16;59.80;94832.63;5116497;28;967;-62
2023/12/10 13:03:11;;;;;;;;;;;;;;;9.09;60.85;94826.31;5116256;28;1092;-65